ARG1541 SACO-SABE
Flight info
| Callsign | ARG1541 |
|---|---|
| Flight time | N/A |
| Altitude | 37000 |
| Route | UTRAX1C UTRAX UW24 SNT SNT8Q |
| Aircraft | B738/M-SDE2E3FGHIRWXY/LB1 |
Departure
| Time | 2026-04-30 22:27 |
|---|---|
| Airport | Ingeniero Aeronáutico Ambrosio L.V. Taravella International Airport (SACO) |
Arrival
| Time | N/A |
|---|---|
| Airport | Aeroparque Jorge Newbery (SABE) |
| Time | Latitude | Longitude | Altitude | Speed | Heading |
|---|---|---|---|---|---|
| 2026-04-30 21:53 | -31.31612 | -64.21166 | 1619 ft | 0 kts | 268° |
| 2026-04-30 22:17 | -31.31611 | -64.21159 | 1592 ft | 3 kts | 288° |
| 2026-04-30 22:17 | -31.31611 | -64.21128 | 1619 ft | 3 kts | 251° |
| 2026-04-30 22:18 | -31.31602 | -64.21110 | 1621 ft | 3 kts | 217° |
| 2026-04-30 22:18 | -31.31575 | -64.21100 | 1616 ft | 1 kts | 182° |
| 2026-04-30 22:22 | -31.31577 | -64.21100 | 1617 ft | 1 kts | 181° |
| 2026-04-30 22:22 | -31.31593 | -64.21100 | 1622 ft | 3 kts | 182° |
| 2026-04-30 22:22 | -31.31626 | -64.21102 | 1616 ft | 7 kts | 180° |
| 2026-04-30 22:23 | -31.31696 | -64.21101 | 1614 ft | 13 kts | 176° |
| 2026-04-30 22:23 | -31.31772 | -64.21048 | 1612 ft | 13 kts | 147° |
| 2026-04-30 22:23 | -31.31858 | -64.21028 | 1617 ft | 13 kts | 176° |
| 2026-04-30 22:23 | -31.31959 | -64.21027 | 1614 ft | 16 kts | 179° |
| 2026-04-30 22:24 | -31.32082 | -64.21025 | 1618 ft | 19 kts | 178° |
| 2026-04-30 22:24 | -31.32174 | -64.21024 | 1616 ft | 21 kts | 179° |
| 2026-04-30 22:24 | -31.32337 | -64.21020 | 1617 ft | 12 kts | 179° |
| 2026-04-30 22:24 | -31.32393 | -64.21009 | 1615 ft | 4 kts | 153° |
| 2026-04-30 22:25 | -31.32395 | -64.21008 | 1617 ft | 0 kts | 151° |
| 2026-04-30 22:25 | -31.32396 | -64.21007 | 1615 ft | 1 kts | 150° |
| 2026-04-30 22:26 | -31.32435 | -64.20947 | 1615 ft | 9 kts | 106° |
| 2026-04-30 22:26 | -31.32419 | -64.20869 | 1612 ft | 12 kts | 49° |
| 2026-04-30 22:26 | -31.32347 | -64.20818 | 1619 ft | 13 kts | 9° |
| 2026-04-30 22:27 | -31.32199 | -64.20817 | 1614 ft | 51 kts | 359° |
| 2026-04-30 22:27 | -31.31540 | -64.20828 | 1619 ft | 136 kts | 359° |
| 2026-04-30 22:27 | -31.29084 | -64.20860 | 3017 ft | 179 kts | 6° |
| 2026-04-30 22:28 | -31.26715 | -64.20079 | 5000 ft | 189 kts | 26° |
| 2026-04-30 22:28 | -31.25626 | -64.19187 | 5787 ft | 197 kts | 41° |
| 2026-04-30 22:29 | -31.24013 | -64.14737 | 7820 ft | 218 kts | 85° |
| 2026-04-30 22:29 | -31.24007 | -64.12872 | 8173 ft | 241 kts | 88° |
| 2026-04-30 22:30 | -31.27241 | -64.05331 | 10914 ft | 277 kts | 120° |
| 2026-04-30 22:31 | -31.31499 | -63.99958 | 12023 ft | 338 kts | 137° |
| 2026-04-30 22:32 | -31.36871 | -63.94060 | 13970 ft | 361 kts | 139° |
| 2026-04-30 22:32 | -31.40565 | -63.89987 | 15363 ft | 368 kts | 139° |
| 2026-04-30 22:33 | -31.46242 | -63.83706 | 17395 ft | 381 kts | 139° |
| 2026-04-30 22:33 | -31.50105 | -63.79424 | 18666 ft | 388 kts | 140° |
| 2026-04-30 22:34 | -31.56060 | -63.72810 | 20502 ft | 398 kts | 140° |
| 2026-04-30 22:35 | -31.60110 | -63.68307 | 21699 ft | 404 kts | 140° |
| 2026-04-30 22:36 | -31.68408 | -63.59064 | 23877 ft | 418 kts | 141° |
| 2026-04-30 22:36 | -31.70523 | -63.56704 | 24336 ft | 421 kts | 141° |
| 2026-04-30 22:37 | -31.76956 | -63.49519 | 25724 ft | 430 kts | 141° |
| 2026-04-30 22:37 | -31.79130 | -63.47089 | 26167 ft | 433 kts | 141° |
| 2026-04-30 22:37 | -31.83521 | -63.42179 | 27035 ft | 439 kts | 141° |
| 2026-04-30 22:38 | -31.87975 | -63.37180 | 27853 ft | 445 kts | 141° |
| 2026-04-30 22:38 | -31.92053 | -63.31560 | 28672 ft | 456 kts | 133° |
| 2026-04-30 22:39 | -31.94010 | -63.28602 | 29047 ft | 460 kts | 132° |
| 2026-04-30 22:39 | -31.99947 | -63.19608 | 30165 ft | 467 kts | 133° |
| 2026-04-30 22:40 | -32.06025 | -63.10525 | 31090 ft | 473 kts | 133° |
| 2026-04-30 22:41 | -32.12190 | -63.01325 | 32014 ft | 478 kts | 133° |
| 2026-04-30 22:41 | -32.15484 | -62.96395 | 32705 ft | 475 kts | 133° |
| 2026-04-30 22:42 | -32.23502 | -62.84374 | 34100 ft | 473 kts | 134° |
| 2026-04-30 22:43 | -32.27571 | -62.78261 | 34658 ft | 474 kts | 134° |
| 2026-04-30 22:43 | -32.31642 | -62.72136 | 35254 ft | 473 kts | 134° |
| 2026-04-30 22:44 | -32.35702 | -62.66017 | 35784 ft | 473 kts | 134° |
| 2026-04-30 22:45 | -32.43815 | -62.53758 | 36841 ft | 472 kts | 134° |
| 2026-04-30 22:45 | -32.47853 | -62.47644 | 36885 ft | 475 kts | 134° |
| 2026-04-30 22:47 | -32.59918 | -62.29311 | 36879 ft | 466 kts | 135° |
| 2026-04-30 22:48 | -32.67871 | -62.17194 | 36880 ft | 465 kts | 135° |
| 2026-04-30 22:49 | -32.79087 | -61.98144 | 36885 ft | 471 kts | 131° |
| 2026-04-30 22:51 | -32.90278 | -61.78897 | 36892 ft | 474 kts | 132° |
| 2026-04-30 22:52 | -32.95921 | -61.69173 | 36896 ft | 474 kts | 132° |
| 2026-04-30 22:53 | -33.03370 | -61.56294 | 36896 ft | 473 kts | 132° |
| 2026-04-30 22:53 | -33.08947 | -61.46625 | 36895 ft | 471 kts | 133° |
| 2026-04-30 22:55 | -33.18178 | -61.30570 | 36894 ft | 468 kts | 133° |
| 2026-04-30 22:56 | -33.25529 | -61.17753 | 36260 ft | 466 kts | 133° |
| 2026-04-30 22:56 | -33.30911 | -61.08283 | 35184 ft | 452 kts | 133° |
| 2026-04-30 22:57 | -33.34394 | -61.02098 | 34424 ft | 445 kts | 133° |
| 2026-04-30 22:57 | -33.37821 | -60.96002 | 33715 ft | 437 kts | 134° |
| 2026-04-30 22:58 | -33.41177 | -60.89998 | 32938 ft | 430 kts | 134° |
| 2026-04-30 22:59 | -33.46099 | -60.81202 | 31831 ft | 420 kts | 134° |
| 2026-04-30 22:59 | -33.50934 | -60.72565 | 30745 ft | 412 kts | 135° |